Time;durP1;ratioP1;P1;durP2;ratioP2;P2;SDS_P1;SDS_P2;PMS_P1;PMS_P2;Temp;Humidity;BMP_temperature;BMP_pressure;BME280_temperature;BME280_humidity;BME280_pressure;Samples;Min_cycle;Max_cycle;Signal;HPM_P1;HPM_P2
2023/04/19 00:00:34;;;;;;;0.65;0.65;;;;;;;;;;6254693;23;20355;-77
2023/04/19 00:03:00;;;;;;;0.85;0.85;;;18.60;76.00;;;;;;6254381;22;20016;-77
2023/04/19 00:05:27;;;;;;;1.00;1.00;;;18.30;86.40;;;;;;6254762;22;19992;-78
2023/04/19 00:07:52;;;;;;;1.40;1.30;;;18.10;86.60;;;;;;6254665;22;20030;-77
2023/04/19 00:10:19;;;;;;;1.02;0.82;;;;;;;;;;6254601;23;19993;-74
2023/04/19 00:12:44;;;;;;;0.90;0.90;;;18.60;86.60;;;;;;6244909;22;20008;-74
2023/04/19 00:15:10;;;;;;;1.00;0.80;;;18.50;86.80;;;;;;6254525;23;19996;-75
2023/04/19 00:17:36;;;;;;;0.82;0.82;;;18.40;69.90;;;;;;6254659;23;20023;-74
2023/04/19 00:20:04;;;;;;;1.00;0.90;;;18.50;78.30;;;;;;6254662;22;20038;-74
2023/04/19 00:22:30;;;;;;;1.52;1.05;;;;;;;;;;6254449;22;20004;-74
2023/04/19 00:24:55;;;;;;;1.20;1.10;;;18.60;64.50;;;;;;6254544;23;20000;-74
2023/04/19 00:27:21;;;;;;;1.50;1.10;;;;;;;;;;6254493;23;20003;-75
2023/04/19 00:29:47;;;;;;;0.88;0.88;;;;;;;;;;6254718;23;19996;-78
2023/04/19 00:32:14;;;;;;;0.75;0.75;;;18.50;54.40;;;;;;6254481;23;20004;-78
2023/04/19 00:34:40;;;;;;;1.05;0.80;;;18.70;87.00;;;;;;6254577;22;19992;-78
2023/04/19 00:37:10;;;;;;;1.00;0.90;;;18.30;86.50;;;;;;6254643;22;20007;-77
2023/04/19 00:39:36;;;;;;;1.15;0.90;;;;;;;;;;6254591;22;20034;-78
2023/04/19 00:42:02;;;;;;;0.90;0.77;;;;;;;;;;6244688;23;20329;-78
2023/04/19 00:44:28;;;;;;;1.23;1.05;;;;;;;;;;6254348;23;20067;-78
2023/04/19 00:46:55;;;;;;;0.68;0.68;;;18.80;59.70;;;;;;6254570;23;20011;-74
2023/04/19 00:49:22;;;;;;;0.73;0.73;;;18.50;54.00;;;;;;6254640;22;19996;-74
2023/04/19 00:51:49;;;;;;;1.17;1.08;;;18.40;54.20;;;;;;6254544;22;19992;-75
2023/04/19 00:54:15;;;;;;;0.70;0.70;;;18.30;72.00;;;;;;6254342;22;20008;-75
2023/04/19 00:56:42;;;;;;;1.15;0.80;;;18.50;54.20;;;;;;6254547;22;19996;-74
2023/04/19 00:59:08;;;;;;;1.02;0.98;;;18.30;76.90;;;;;;6254505;22;19996;-74
2023/04/19 01:01:34;;;;;;;0.73;0.73;;;18.20;86.30;;;;;;6254140;23;19996;-75
2023/04/19 01:04:00;;;;;;;0.90;0.85;;;18.60;65.20;;;;;;6254174;23;20517;-75
2023/04/19 01:06:29;;;;;;;1.45;1.10;;;18.60;86.80;;;;;;6255469;22;20067;-74
2023/04/19 01:08:55;;;;;;;1.38;1.02;;;18.60;86.70;;;;;;6256302;23;20057;-74
2023/04/19 01:11:24;;;;;;;0.93;0.82;;;18.40;51.10;;;;;;6256242;22;19996;-75
2023/04/19 01:13:50;;;;;;;1.50;1.00;;;18.50;86.60;;;;;;6256235;22;20050;-74
2023/04/19 01:16:16;;;;;;;0.77;0.73;;;;;;;;;;6256164;22;20071;-74
2023/04/19 01:18:42;;;;;;;1.00;0.90;;;18.30;86.50;;;;;;6256081;23;20000;-74
2023/04/19 01:21:08;;;;;;;1.15;0.70;;;18.60;75.30;;;;;;6256130;22;19996;-74
2023/04/19 01:23:35;;;;;;;1.13;0.90;;;18.30;54.40;;;;;;6256084;22;20035;-78
2023/04/19 01:26:01;;;;;;;0.93;0.93;;;18.50;86.70;;;;;;6246312;22;19996;-78
2023/04/19 01:28:27;;;;;;;1.35;1.10;;;18.00;86.20;;;;;;6246024;23;20039;-77
2023/04/19 01:30:54;;;;;;;1.17;1.08;;;;;;;;;;6245974;22;20450;-77
2023/04/19 01:33:21;;;;;;;1.83;1.23;;;18.50;85.40;;;;;;6246107;23;20024;-77
2023/04/19 01:35:47;;;;;;;1.25;0.93;;;18.20;86.60;;;;;;6245871;22;20012;-77
2023/04/19 01:38:14;;;;;;;1.00;0.90;;;18.40;53.40;;;;;;6246121;23;20001;-77
2023/04/19 01:40:40;;;;;;;0.70;0.70;;;18.30;86.60;;;;;;6246066;22;19996;-77
2023/04/19 01:43:07;;;;;;;1.17;1.00;;;18.50;86.70;;;;;;6245672;23;20038;-77
2023/04/19 01:45:35;;;;;;;1.45;1.10;;;18.50;86.80;;;;;;6245914;22;19996;-77
2023/04/19 01:48:03;;;;;;;1.13;0.80;;;18.60;86.80;;;;;;6245674;22;20462;-77
2023/04/19 01:50:29;;;;;;;1.02;1.00;;;18.50;81.30;;;;;;6245934;22;20016;-77
2023/04/19 01:52:55;;;;;;;0.95;0.93;;;18.50;71.40;;;;;;6255894;22;20000;-78
2023/04/19 01:55:20;;;;;;;1.10;1.00;;;18.30;86.90;;;;;;6255716;23;20463;-77
2023/04/19 01:57:46;;;;;;;0.80;0.80;;;18.40;86.70;;;;;;6255702;23;20466;-78
2023/04/19 02:00:12;;;;;;;1.20;1.10;;;18.50;58.90;;;;;;6255806;23;19996;-74
2023/04/19 02:02:37;;;;;;;0.75;0.70;;;18.10;55.70;;;;;;6255274;22;20455;-74
2023/04/19 02:05:05;;;;;;;0.77;0.77;;;18.30;54.60;;;;;;6255776;23;20046;-74
2023/04/19 02:07:30;;;;;;;0.80;0.80;;;18.20;86.70;;;;;;6255569;22;20071;-74
2023/04/19 02:09:58;;;;;;;0.95;0.90;;;18.50;86.90;;;;;;6255588;23;20027;-74
2023/04/19 02:12:27;;;;;;;1.00;0.90;;;18.40;71.60;;;;;;6255659;22;20000;-74
2023/04/19 02:14:56;;;;;;;1.33;0.82;;;18.20;86.90;;;;;;6255679;22;19992;-74
2023/04/19 02:17:25;;;;;;;1.63;1.05;;;18.30;54.70;;;;;;6245004;22;20046;-74
2023/04/19 02:19:51;;;;;;;1.40;1.30;;;18.50;86.80;;;;;;6255576;23;20038;-77
2023/04/19 02:22:17;;;;;;;1.92;0.95;;;18.20;86.90;;;;;;6255540;23;20008;-77
2023/04/19 02:24:43;;;;;;;1.08;0.95;;;18.10;86.80;;;;;;6255437;22;20071;-77
2023/04/19 02:27:08;;;;;;;0.98;0.90;;;18.30;86.90;;;;;;6255438;23;20038;-77
2023/04/19 02:29:34;;;;;;;1.20;1.10;;;18.40;87.20;;;;;;6255359;23;19996;-77
2023/04/19 02:32:00;;;;;;;1.20;1.10;;;18.50;80.90;;;;;;6255419;23;20439;-77
2023/04/19 02:34:27;;;;;;;2.30;0.93;;;18.90;55.00;;;;;;6255368;23;20030;-77
2023/04/19 02:36:52;;;;;;;1.35;1.02;;;18.50;87.00;;;;;;6255457;23;20000;-74
2023/04/19 02:39:18;;;;;;;1.42;0.93;;;18.30;86.50;;;;;;6255464;23;20378;-74
2023/04/19 02:41:44;;;;;;;1.10;1.00;;;;;;;;;;6255174;23;20011;-74
2023/04/19 02:44:10;;;;;;;1.88;0.80;;;;;;;;;;6255269;23;19996;-74
2023/04/19 02:46:36;;;;;;;1.73;1.30;;;;;;;;;;6245445;23;20327;-74
2023/04/19 02:49:02;;;;;;;1.33;1.08;;;;;;;;;;6255240;23;20071;-74
2023/04/19 02:51:28;;;;;;;1.02;1.00;;;;;;;;;;6244984;23;20000;-74
2023/04/19 02:53:54;;;;;;;1.55;1.25;;;18.00;69.00;;;;;;6245344;23;20004;-74
2023/04/19 02:56:20;;;;;;;1.25;1.15;;;;;;;;;;6255343;22;20004;-74
2023/04/19 02:58:46;;;;;;;1.25;1.15;;;18.10;54.70;;;;;;6255116;23;20115;-74
2023/04/19 03:01:11;;;;;;;1.30;0.90;;;18.40;59.90;;;;;;6255082;23;19996;-74
2023/04/19 03:03:37;;;;;;;1.05;0.95;;;;;;;;;;6254905;23;20050;-73
2023/04/19 03:06:04;;;;;;;1.30;0.95;;;;;;;;;;6255037;23;20058;-74
2023/04/19 03:08:30;;;;;;;1.25;0.93;;;;;;;;;;6255033;23;20340;-74
2023/04/19 03:10:56;;;;;;;1.02;0.90;;;;;;;;;;6255041;23;20042;-74
2023/04/19 03:13:22;;;;;;;1.40;0.98;;;;;;;;;;6255024;23;19996;-74
2023/04/19 03:15:48;;;;;;;1.30;1.20;;;;;;;;;;6253712;23;20023;-74
2023/04/19 03:18:14;;;;;;;0.75;0.70;;;;;;;;;;6243263;23;20004;-74
2023/04/19 03:20:40;;;;;;;1.33;1.23;;;;;;;;;;6254972;23;20007;-74
2023/04/19 03:23:06;;;;;;;1.02;0.98;;;;;;;;;;6254798;23;20005;-74
2023/04/19 03:25:32;;;;;;;1.48;1.38;;;;;;;;;;6254939;23;20051;-74
2023/04/19 03:27:58;;;;;;;1.95;1.65;;;;;;;;;;6254866;23;20035;-74
2023/04/19 03:30:24;;;;;;;1.42;1.15;;;;;;;;;;6254409;23;20023;-74
2023/04/19 03:32:51;;;;;;;1.38;1.00;;;;;;;;;;6254806;23;20000;-77
2023/04/19 03:35:16;;;;;;;1.30;1.20;;;18.20;87.50;;;;;;6254877;22;19996;-74
2023/04/19 03:37:42;;;;;;;1.20;1.10;;;18.00;87.40;;;;;;6254805;22;20000;-74
2023/04/19 03:40:08;;;;;;;1.40;1.00;;;18.10;80.30;;;;;;6254753;23;19992;-74
2023/04/19 03:42:34;;;;;;;1.10;1.02;;;18.10;87.50;;;;;;6244897;22;20010;-74
2023/04/19 03:45:00;;;;;;;1.00;1.00;;;18.40;84.60;;;;;;6254641;22;20054;-74
2023/04/19 03:47:26;;;;;;;1.05;0.95;;;18.40;87.10;;;;;;6254746;22;19996;-74
2023/04/19 03:49:52;;;;;;;1.33;1.23;;;;;;;;;;6243083;23;20019;-74
2023/04/19 03:52:18;;;;;;;1.52;1.02;;;;;;;;;;6244524;23;20062;-77
2023/04/19 03:54:44;;;;;;;1.17;0.90;;;;;;;;;;6254709;23;20027;-77
2023/04/19 03:57:12;;;;;;;1.10;1.00;;;18.40;73.30;;;;;;6254788;22;20023;-77
2023/04/19 03:59:38;;;;;;;1.30;1.15;;;;;;;;;;6246207;22;20019;-77
2023/04/19 04:02:05;;;;;;;1.35;1.08;;;18.40;73.80;;;;;;6250647;22;20459;-75
2023/04/19 04:04:31;;;;;;;1.30;1.05;;;;;;;;;;6263016;22;19992;-75
2023/04/19 04:06:57;;;;;;;1.38;1.00;;;;;;;;;;6254686;23;20004;-76
2023/04/19 04:09:23;;;;;;;1.73;1.00;;;17.90;75.30;;;;;;6254881;23;19992;-78
2023/04/19 04:11:49;;;;;;;1.00;0.80;;;;;;;;;;6254768;23;20151;-77
2023/04/19 04:14:14;;;;;;;1.33;0.95;;;18.20;87.70;;;;;;6254639;23;20043;-77
2023/04/19 04:16:40;;;;;;;1.25;1.15;;;18.00;87.60;;;;;;6254673;23;20015;-76
2023/04/19 04:19:06;;;;;;;2.25;1.00;;;;;;;;;;6254563;23;19996;-79
2023/04/19 04:21:32;;;;;;;1.20;1.10;;;18.00;78.50;;;;;;6244420;22;20000;-76
2023/04/19 04:24:00;;;;;;;1.27;1.08;;;;;;;;;;6254593;22;20004;-76
2023/04/19 04:26:29;;;;;;;1.00;0.90;;;18.40;87.10;;;;;;6254667;22;19992;-75
2023/04/19 04:28:56;;;;;;;1.10;1.00;;;18.40;64.60;;;;;;6254627;22;20567;-76
2023/04/19 04:31:22;;;;;;;1.60;1.10;;;;;;;;;;6254414;22;20023;-75
2023/04/19 04:33:48;;;;;;;1.58;1.20;;;;;;;;;;6254371;23;19992;-75
2023/04/19 04:36:14;;;;;;;3.05;1.10;;;18.30;67.90;;;;;;6244700;23;20004;-76
2023/04/19 04:38:40;;;;;;;2.95;1.40;;;17.80;85.50;;;;;;6244869;22;19992;-76
2023/04/19 04:41:06;;;;;;;1.90;1.35;;;;;;;;;;6243546;23;20004;-76
2023/04/19 04:43:33;;;;;;;2.67;1.40;;;18.10;66.30;;;;;;6256489;23;20014;-76
2023/04/19 04:46:00;;;;;;;1.38;1.27;;;;;;;;;;6256579;22;19996;-75
2023/04/19 04:48:26;;;;;;;2.85;1.10;;;;;;;;;;6256455;22;20000;-76
2023/04/19 04:50:52;;;;;;;2.58;1.40;;;;;;;;;;6256552;23;19996;-75
2023/04/19 04:53:18;;;;;;;2.15;1.55;;;;;;;;;;6246482;23;20083;-76
2023/04/19 04:55:44;;;;;;;2.80;1.50;;;;;;;;;;6256494;23;20077;-76
2023/04/19 04:58:10;;;;;;;1.35;1.10;;;;;;;;;;6246496;23;20001;-76
2023/04/19 05:00:36;;;;;;;1.80;1.00;;;;;;;;;;6256361;23;20075;-76
2023/04/19 05:03:02;;;;;;;1.90;1.27;;;;;;;;;;6255854;23;20061;-76
2023/04/19 05:05:28;;;;;;;1.65;1.30;;;;;;;;;;6246496;23;20000;-76
2023/04/19 05:07:54;;;;;;;2.45;1.10;;;18.30;87.70;;;;;;6246500;22;20015;-76
2023/04/19 05:10:20;;;;;;;1.63;1.27;;;;;;;;;;6246364;22;19996;-76
2023/04/19 05:12:46;;;;;;;1.30;1.20;;;18.30;67.80;;;;;;6256281;23;20071;-76
2023/04/19 05:15:11;;;;;;;1.50;1.40;;;;;;;;;;6256263;23;20074;-76
2023/04/19 05:17:37;;;;;;;1.48;1.00;;;;;;;;;;6256178;23;20003;-75
2023/04/19 05:20:04;;;;;;;1.50;1.23;;;18.40;71.80;;;;;;6256261;23;20367;-76
2023/04/19 05:22:30;;;;;;;1.63;1.48;;;17.80;87.20;;;;;;6256102;22;20439;-74
2023/04/19 05:24:56;;;;;;;1.58;1.10;;;18.00;62.00;;;;;;6256246;23;19992;-74
2023/04/19 05:27:21;;;;;;;1.67;1.15;;;;;;;;;;6256082;23;19996;-74
2023/04/19 05:29:50;;;;;;;1.58;1.30;;;;;;;;;;6256156;23;20020;-73
2023/04/19 05:32:16;;;;;;;1.42;1.33;;;;;;;;;;6246151;22;20411;-74
2023/04/19 05:34:42;;;;;;;1.85;1.25;;;;;;;;;;6255941;23;20054;-73
2023/04/19 05:37:08;;;;;;;1.42;1.33;;;;;;;;;;6255977;23;19997;-73
2023/04/19 05:39:34;;;;;;;1.42;1.10;;;;;;;;;;6255918;23;20046;-73
2023/04/19 05:42:00;;;;;;;1.30;1.15;;;;;;;;;;6256038;23;19996;-73
2023/04/19 05:44:26;;;;;;;2.53;1.40;;;18.20;80.10;;;;;;6255973;22;20004;-73
2023/04/19 05:46:52;;;;;;;1.30;1.20;;;;;;;;;;6255886;23;19996;-73
2023/04/19 05:49:18;;;;;;;1.55;1.40;;;;;;;;;;6255780;23;20335;-73
2023/04/19 05:51:44;;;;;;;2.22;1.50;;;;;;;;;;6255509;23;20004;-72
2023/04/19 05:54:11;;;;;;;1.45;1.20;;;18.20;74.40;;;;;;6245678;23;20000;-72
2023/04/19 05:56:38;;;;;;;2.53;1.38;;;;;;;;;;6245656;22;20475;-72
2023/04/19 05:59:04;;;;;;;2.55;1.50;;;;;;;;;;6255925;23;20000;-72
2023/04/19 06:01:30;;;;;;;2.75;1.40;;;18.40;83.70;;;;;;6245881;23;20038;-75
2023/04/19 06:03:56;;;;;;;2.85;1.13;;;18.00;86.50;;;;;;6245547;22;20069;-75
2023/04/19 06:06:22;;;;;;;1.40;1.10;;;18.50;86.70;;;;;;6246031;23;20035;-75
2023/04/19 06:08:49;;;;;;;1.55;1.30;;;18.50;86.70;;;;;;6246120;22;20007;-75
2023/04/19 06:11:16;;;;;;;1.77;1.30;;;;;;;;;;6246054;22;19996;-75
2023/04/19 06:13:43;;;;;;;2.28;1.48;;;;;;;;;;6255733;23;20007;-75
2023/04/19 06:16:09;;;;;;;3.42;1.35;;;18.40;86.40;;;;;;6255924;22;20054;-75
2023/04/19 06:18:35;;;;;;;3.10;1.20;;;18.10;86.40;;;;;;6255801;23;20423;-73
2023/04/19 06:21:00;;;;;;;2.45;1.00;;;18.50;86.60;;;;;;6255823;23;19999;-73
2023/04/19 06:23:26;;;;;;;2.38;1.00;;;;;;;;;;6255582;23;20079;-81
2023/04/19 06:25:52;;;;;;;2.17;1.17;;;18.10;79.90;;;;;;6243853;23;19996;-74
2023/04/19 06:28:18;;;;;;;2.50;1.13;;;;;;;;;;6255643;23;20121;-73
2023/04/19 06:30:44;;;;;;;2.80;1.30;;;18.60;56.80;;;;;;6255486;23;19996;-73
2023/04/19 06:33:10;;;;;;;2.10;1.13;;;18.20;72.00;;;;;;6243873;23;20435;-73
2023/04/19 06:35:36;;;;;;;3.15;1.27;;;;;;;;;;6255626;22;20000;-74
2023/04/19 06:38:02;;;;;;;2.35;1.13;;;18.50;66.70;;;;;;6245920;22;20000;-74
2023/04/19 06:40:28;;;;;;;1.90;1.30;;;;;;;;;;6255402;23;20439;-75
2023/04/19 06:42:54;;;;;;;2.80;1.05;;;;;;;;;;6245401;23;20019;-75
2023/04/19 06:45:20;;;;;;;3.58;1.50;;;;;;;;;;6255680;23;20003;-76
2023/04/19 06:47:47;;;;;;;2.95;1.42;;;;;;;;;;6245294;23;20058;-75
2023/04/19 06:50:13;;;;;;;3.08;1.40;;;18.50;88.10;;;;;;6245743;23;20335;-73
2023/04/19 06:52:38;;;;;;;3.22;1.55;;;18.50;88.40;;;;;;6243731;23;20001;-75
2023/04/19 06:55:05;;;;;;;1.98;1.10;;;18.30;84.10;;;;;;6245535;23;20019;-74
2023/04/19 06:57:31;;;;;;;3.42;1.45;;;18.30;88.00;;;;;;6255436;22;20000;-74
2023/04/19 06:59:57;;;;;;;1.95;1.20;;;18.50;88.30;;;;;;6255346;22;20161;-74
2023/04/19 07:02:23;;;;;;;3.17;1.88;;;18.30;87.90;;;;;;6254812;23;20015;-75
2023/04/19 07:04:48;;;;;;;2.13;0.98;;;18.80;88.20;;;;;;6255198;22;20031;-74
2023/04/19 07:07:14;;;;;;;1.92;1.60;;;18.70;87.80;;;;;;6245469;23;20318;-74
2023/04/19 07:09:40;;;;;;;1.38;1.27;;;18.90;71.90;;;;;;6255318;22;19996;-74
2023/04/19 07:12:06;;;;;;;2.53;1.02;;;;;;;;;;6255170;23;20000;-75
2023/04/19 07:14:32;;;;;;;2.78;1.45;;;;;;;;;;6255166;23;20028;-75
2023/04/19 07:16:58;;;;;;;2.45;1.50;;;18.80;70.50;;;;;;6244867;22;20004;-75
2023/04/19 07:19:25;;;;;;;1.10;1.00;;;;;;;;;;6255241;22;20070;-75
2023/04/19 07:21:50;;;;;;;1.20;1.08;;;18.90;87.60;;;;;;6254978;22;19996;-75
2023/04/19 07:24:16;;;;;;;1.88;1.27;;;18.90;87.70;;;;;;6255227;23;20505;-75
2023/04/19 07:26:42;;;;;;;1.65;1.30;;;;;;;;;;6255086;23;19993;-74
2023/04/19 07:29:08;;;;;;;2.90;1.10;;;18.60;65.70;;;;;;6254954;23;20019;-74
2023/04/19 07:31:34;;;;;;;2.95;1.42;;;19.00;71.20;;;;;;6244824;23;20001;-78
2023/04/19 07:34:00;;;;;;;3.35;1.73;;;18.50;87.90;;;;;;6218432;23;19996;-78
2023/04/19 07:36:26;;;;;;;5.60;1.75;;;18.60;87.80;;;;;;6243316;23;20451;-78
2023/04/19 07:38:53;;;;;;;2.10;1.55;;;18.70;88.00;;;;;;6243732;23;20000;-79
2023/04/19 07:41:20;;;;;;;2.28;1.80;;;18.80;56.30;;;;;;6218172;23;20128;-78
2023/04/19 07:43:46;;;;;;;4.68;1.38;;;19.00;72.60;;;;;;6217970;23;20008;-78
2023/04/19 07:46:15;;;;;;;5.10;1.23;;;18.70;56.20;;;;;;6228133;23;20001;-78
2023/04/19 07:48:41;;;;;;;3.13;1.23;;;19.00;88.70;;;;;;6218901;23;20004;-78
2023/04/19 07:51:11;;;;;;;2.33;1.10;;;18.70;88.50;;;;;;6228056;23;20027;-78
2023/04/19 07:53:38;;;;;;;2.22;1.90;;;19.00;88.70;;;;;;6253309;23;20075;-78
2023/04/19 07:56:05;;;;;;;1.92;1.70;;;18.70;88.00;;;;;;6228303;23;20004;-78
2023/04/19 07:58:31;;;;;;;1.75;1.50;;;18.60;88.80;;;;;;6218018;23;20339;-78
2023/04/19 08:00:57;;;;;;;3.72;2.10;;;;;;;;;;6228006;23;20004;-78
2023/04/19 08:03:23;;;;;;;4.25;1.20;;;18.80;89.10;;;;;;6243347;23;20062;-76
2023/04/19 08:05:48;;;;;;;4.30;1.52;;;18.80;89.20;;;;;;6228017;23;20001;-78
2023/04/19 08:08:14;;;;;;;2.35;1.48;;;19.00;89.10;;;;;;6217767;23;20078;-77
2023/04/19 08:10:40;;;;;;;1.60;1.50;;;18.60;57.50;;;;;;6231110;23;20002;-78
2023/04/19 08:13:06;;;;;;;1.80;1.70;;;;;;;;;;6217886;23;20004;-77
2023/04/19 08:15:33;;;;;;;3.25;1.85;;;18.70;57.40;;;;;;6253811;23;20004;-77
2023/04/19 08:17:58;;;;;;;1.67;1.30;;;18.60;89.40;;;;;;6220416;23;20004;-76
2023/04/19 08:20:25;;;;;;;3.50;1.70;;;19.00;89.60;;;;;;6230013;23;20073;-77
2023/04/19 08:22:52;;;;;;;4.85;1.38;;;18.50;89.50;;;;;;6220463;23;20012;-77
2023/04/19 08:25:18;;;;;;;3.60;1.33;;;18.30;89.50;;;;;;6220486;23;20071;-76
2023/04/19 08:27:44;;;;;;;2.90;1.50;;;18.90;85.00;;;;;;6229914;23;20513;-74
2023/04/19 08:30:10;;;;;;;2.42;1.85;;;18.00;56.70;;;;;;6255259;23;20078;-73
2023/04/19 08:32:36;;;;;;;4.72;1.67;;;19.20;60.80;;;;;;6219792;23;20331;-76
2023/04/19 08:35:03;;;;;;;2.70;1.70;;;18.90;61.20;;;;;;6255050;23;20063;-76
2023/04/19 08:37:28;;;;;;;5.18;1.40;;;19.10;89.90;;;;;;6230100;23;20374;-76
2023/04/19 08:39:54;;;;;;;1.77;1.50;;;19.00;72.30;;;;;;6229765;23;20057;-76
2023/04/19 08:42:20;;;;;;;2.85;1.63;;;;;;;;;;6229585;23;20057;-75
2023/04/19 08:44:47;;;;;;;2.17;1.52;;;18.80;89.20;;;;;;6246894;22;20347;-76
2023/04/19 08:47:15;;;;;;;2.15;1.67;;;19.10;89.90;;;;;;6229965;23;20443;-75
2023/04/19 08:49:41;;;;;;;3.72;1.58;;;18.80;89.90;;;;;;6230347;23;20031;-76
2023/04/19 08:52:11;;;;;;;2.92;1.50;;;18.20;57.10;;;;;;6229818;23;19997;-74
2023/04/19 08:54:38;;;;;;;4.10;2.33;;;19.10;89.70;;;;;;6230567;23;20000;-74
2023/04/19 08:57:05;;;;;;;4.85;1.80;;;19.30;57.50;;;;;;6194507;23;20004;-74
2023/04/19 08:59:31;;;;;;;2.70;1.60;;;19.30;89.80;;;;;;6229722;23;20001;-74
2023/04/19 09:02:00;;;;;;;4.38;1.80;;;19.30;90.00;;;;;;6229584;23;20000;-75
2023/04/19 09:04:26;;;;;;;2.72;1.55;;;;;;;;;;6229632;23;20008;-77
2023/04/19 09:06:52;;;;;;;2.15;1.67;;;19.30;65.70;;;;;;6219678;23;20000;-77
2023/04/19 09:09:18;;;;;;;3.20;1.70;;;19.20;89.80;;;;;;6219458;23;20389;-78
2023/04/19 09:11:45;;;;;;;2.05;1.38;;;19.50;90.00;;;;;;6244666;23;20020;-77
2023/04/19 09:14:12;;;;;;;1.35;1.25;;;19.30;56.00;;;;;;6229428;23;20031;-77
2023/04/19 09:16:38;;;;;;;2.67;1.55;;;19.50;72.00;;;;;;6256432;22;20028;-77
2023/04/19 09:19:04;;;;;;;1.92;1.70;;;;;;;;;;6256334;23;20000;-78
2023/04/19 09:21:31;;;;;;;2.08;1.73;;;;;;;;;;6256087;23;19992;-78
2023/04/19 09:23:58;;;;;;;2.83;1.58;;;19.00;88.40;;;;;;6256292;23;20011;-76
2023/04/19 09:26:28;;;;;;;2.00;1.30;;;;;;;;;;6256141;22;20003;-76
2023/04/19 09:29:04;;;;;;;2.75;1.40;;;19.60;52.00;;;;;;6244557;23;20008;-76
2023/04/19 09:31:34;;;;;;;1.63;1.40;;;19.60;88.70;;;;;;6244446;23;20000;-76
2023/04/19 09:34:17;;;;;;;1.88;1.33;;;19.60;62.80;;;;;;6256287;22;19999;-76
2023/04/19 09:36:43;;;;;;;3.08;1.33;;;19.60;88.70;;;;;;6256187;22;20002;-76
2023/04/19 09:39:09;;;;;;;2.58;1.60;;;19.50;88.40;;;;;;6256227;22;20020;-75
2023/04/19 09:41:36;;;;;;;2.55;1.40;;;;;;;;;;6256259;22;20309;-74
2023/04/19 09:44:14;;;;;;;1.65;1.55;;;19.80;51.50;;;;;;6245858;22;20466;-75
2023/04/19 09:46:41;;;;;;;1.60;1.50;;;19.60;60.80;;;;;;6256078;22;20000;-74
2023/04/19 09:49:26;;;;;;;1.63;1.38;;;20.00;88.10;;;;;;6245764;22;20024;-76
2023/04/19 09:51:56;;;;;;;2.08;1.38;;;20.40;51.60;;;;;;6246330;22;20066;-75
2023/04/19 09:54:31;;;;;;;1.50;1.40;;;20.10;55.40;;;;;;6255890;22;20003;-75
2023/04/19 09:56:56;;;;;;;1.48;1.20;;;20.40;87.80;;;;;;6256065;22;19996;-74
2023/04/19 09:59:22;;;;;;;1.50;1.33;;;20.00;87.20;;;;;;6255956;22;20331;-74
2023/04/19 10:01:53;;;;;;;1.73;1.45;;;20.60;63.60;;;;;;6254195;23;20003;-73
2023/04/19 10:04:23;;;;;;;1.83;1.20;;;20.50;64.10;;;;;;6255734;22;20386;-74
2023/04/19 10:06:51;;;;;;;1.65;1.30;;;20.50;60.30;;;;;;6254502;23;20007;-74
2023/04/19 10:09:25;;;;;;;1.92;1.73;;;20.70;87.20;;;;;;6255938;22;19996;-75
2023/04/19 10:11:53;;;;;;;2.33;1.40;;;20.70;86.90;;;;;;6255886;22;19996;-75
2023/04/19 10:14:26;;;;;;;1.38;1.20;;;20.50;86.40;;;;;;6245947;22;20339;-74
2023/04/19 10:16:52;;;;;;;2.22;1.48;;;20.40;59.30;;;;;;6245823;22;19996;-73
2023/04/19 10:19:20;;;;;;;1.98;1.67;;;20.60;57.50;;;;;;6255707;23;20328;-76
2023/04/19 10:21:50;;;;;;;1.73;1.05;;;20.80;60.90;;;;;;6255451;22;20004;-77
2023/04/19 10:24:18;;;;;;;1.70;1.33;;;20.30;60.60;;;;;;6255673;22;20339;-77
2023/04/19 10:27:07;;;;;;;2.42;0.90;;;20.80;50.00;;;;;;6255511;22;20054;-76
2023/04/19 10:30:04;;;;;;;1.27;1.10;;;20.90;49.30;;;;;;6245678;22;19996;-77
2023/04/19 10:32:37;;;;;;;1.55;1.13;;;20.90;53.40;;;;;;6255513;22;19996;-77
2023/04/19 10:35:20;;;;;;;1.30;1.10;;;20.90;84.80;;;;;;6246028;22;20331;-77
2023/04/19 10:38:06;;;;;;;1.42;1.10;;;21.10;49.20;;;;;;6257471;22;20058;-74
2023/04/19 10:40:50;;;;;;;1.50;1.40;;;21.20;48.70;;;;;;6257009;22;19992;-74
2023/04/19 10:43:17;;;;;;;1.35;1.25;;;21.50;62.50;;;;;;6257050;22;20443;-74
2023/04/19 10:45:44;;;;;;;1.75;1.10;;;21.60;85.30;;;;;;6256746;22;19996;-74
2023/04/19 10:48:37;;;;;;;3.22;1.30;;;21.60;84.10;;;;;;6255716;22;20000;-74
2023/04/19 10:51:15;;;;;;;1.00;1.00;;;21.50;85.10;;;;;;6241191;23;19996;-73
2023/04/19 10:53:52;;;;;;;1.83;1.10;;;21.80;84.90;;;;;;6255295;22;20122;-73
2023/04/19 10:56:35;;;;;;;1.67;1.00;;;21.20;71.40;;;;;;6255377;22;20079;-73
2023/04/19 10:59:01;;;;;;;1.65;1.00;;;21.60;84.30;;;;;;6255379;23;19992;-73
2023/04/19 11:01:38;;;;;;;0.95;0.93;;;21.40;84.50;;;;;;6255188;22;20067;-73
2023/04/19 11:04:08;;;;;;;0.85;0.85;;;21.70;54.70;;;;;;6254956;22;20098;-73
2023/04/19 11:06:34;;;;;;;1.75;0.70;;;;;;;;;;6245439;22;20004;-73
2023/04/19 11:09:02;;;;;;;1.30;0.90;;;22.30;84.00;;;;;;6255160;22;19999;-73
2023/04/19 11:11:27;;;;;;;1.25;0.80;;;21.90;53.50;;;;;;6255130;22;20023;-73
2023/04/19 11:13:55;;;;;;;1.10;0.90;;;22.00;84.10;;;;;;6255105;23;20479;-76
2023/04/19 11:16:20;;;;;;;0.95;0.90;;;22.00;69.90;;;;;;6245325;22;19996;-76
2023/04/19 11:18:46;;;;;;;1.27;0.90;;;21.90;83.20;;;;;;6254941;23;19997;-76
2023/04/19 11:21:17;;;;;;;4.30;1.42;;;22.90;53.50;;;;;;6255061;23;20023;-76
2023/04/19 11:23:43;;;;;;;1.00;0.80;;;22.00;81.80;;;;;;6254915;23;20005;-76
2023/04/19 11:26:11;;;;;;;1.65;0.90;;;22.50;82.00;;;;;;6255106;23;20002;-76
2023/04/19 11:28:38;;;;;;;2.03;0.70;;;22.30;79.50;;;;;;6255002;23;20482;-76
2023/04/19 11:31:05;;;;;;;2.63;0.93;;;22.30;49.90;;;;;;6255013;22;20395;-73
2023/04/19 11:33:35;;;;;;;1.52;0.90;;;22.60;73.80;;;;;;6244863;22;20035;-72
2023/04/19 11:36:01;;;;;;;;;;;22.40;50.00;;;;;;6245644;22;19996;-72
2023/04/19 11:38:28;;;;;;;1.10;0.80;;;22.50;82.00;;;;;;6245380;22;19900;-72
2023/04/19 11:41:01;;;;;;;3.72;0.90;;;22.70;61.20;;;;;;6245008;22;20092;-73
2023/04/19 11:43:34;;;;;;;1.67;0.80;;;22.60;46.00;;;;;;6245055;22;20004;-73
2023/04/19 11:46:08;;;;;;;0.70;0.70;;;22.20;68.90;;;;;;6244861;22;20001;-73
2023/04/19 11:48:34;;;;;;;1.48;1.08;;;;;;;;;;6244941;22;20114;-73
2023/04/19 11:51:01;;;;;;;1.33;0.80;;;22.50;79.70;;;;;;6244444;23;20011;-76
2023/04/19 11:53:30;;;;;;;0.90;0.70;;;22.80;79.70;;;;;;6245242;22;19996;-76
2023/04/19 11:56:06;;;;;;;1.30;0.80;;;22.80;62.80;;;;;;6244989;22;19996;-76
2023/04/19 11:58:46;;;;;;;1.67;1.15;;;22.80;79.00;;;;;;6244963;22;19992;-76
2023/04/19 12:01:14;;;;;;;;;;;23.20;48.30;;;;;;6245589;22;20000;-76
2023/04/19 12:03:45;;;;;;;3.75;0.90;;;23.00;56.60;;;;;;6244571;22;19911;-76
2023/04/19 12:06:31;;;;;;;2.45;0.90;;;23.20;79.20;;;;;;6245145;22;20027;-77
2023/04/19 12:08:57;;;;;;;1.52;0.73;;;22.80;58.30;;;;;;6244626;22;20011;-77
2023/04/19 12:11:45;;;;;;;1.13;0.90;;;23.40;79.70;;;;;;6245081;22;20521;-76
2023/04/19 12:14:13;;;;;;;1.92;1.00;;;23.70;80.00;;;;;;6244986;22;20003;-76
2023/04/19 12:16:39;;;;;;;0.77;0.60;;;23.10;79.00;;;;;;6245043;22;20007;-75
2023/04/19 12:19:13;;;;;;;1.30;0.75;;;23.30;78.10;;;;;;6245247;22;20504;-75
2023/04/19 12:21:40;;;;;;;1.35;0.85;;;23.20;78.00;;;;;;6244897;22;20304;-76
2023/04/19 12:24:06;;;;;;;2.08;0.55;;;;;;;;;;6244365;22;20088;-76
2023/04/19 12:26:32;;;;;;;2.20;0.70;;;23.70;77.00;;;;;;6244594;23;20007;-76
2023/04/19 12:29:01;;;;;;;1.35;0.90;;;23.50;76.60;;;;;;6244539;23;20035;-76
2023/04/19 12:31:30;;;;;;;1.35;0.80;;;23.90;77.20;;;;;;6244835;22;20003;-76
2023/04/19 12:33:56;;;;;;;1.10;0.73;;;24.00;76.90;;;;;;6244579;22;19996;-76
2023/04/19 12:36:24;;;;;;;0.70;0.70;;;23.40;76.90;;;;;;6244746;23;19993;-76
2023/04/19 12:38:50;;;;;;;2.83;0.70;;;23.90;76.30;;;;;;6244873;22;20072;-76
2023/04/19 12:41:16;;;;;;;1.45;0.60;;;23.80;77.40;;;;;;6244575;22;20056;-76
2023/04/19 12:43:42;;;;;;;0.68;0.50;;;23.60;77.30;;;;;;6244986;23;20075;-76
2023/04/19 12:46:08;;;;;;;1.23;0.52;;;23.60;76.90;;;;;;6244579;23;20332;-74
2023/04/19 12:48:34;;;;;;;0.75;0.68;;;;;;;;;;6244785;23;20000;-74
2023/04/19 12:51:00;;;;;;;1.15;0.63;;;24.20;71.00;;;;;;6244731;23;20000;-74
2023/04/19 12:53:27;;;;;;;0.80;0.70;;;24.40;77.20;;;;;;6244163;23;19996;-74
2023/04/19 12:55:52;;;;;;;1.70;0.60;;;24.00;77.20;;;;;;6254439;23;19996;-74
2023/04/19 12:58:20;;;;;;;0.75;0.75;;;24.20;44.00;;;;;;6254500;23;20008;-73
2023/04/19 13:00:45;;;;;;;0.70;0.55;;;23.70;75.60;;;;;;6254737;22;19996;-76
2023/04/19 13:03:12;;;;;;;2.33;0.70;;;23.70;74.60;;;;;;6255936;22;20135;-77
2023/04/19 13:05:38;;;;;;;1.92;0.50;;;23.90;75.80;;;;;;6246639;22;19992;-77
2023/04/19 13:08:04;;;;;;;0.85;0.68;;;23.70;53.10;;;;;;6256545;23;20000;-77
2023/04/19 13:10:30;;;;;;;1.15;0.70;;;;;;;;;;6256503;22;20046;-76
2023/04/19 13:12:57;;;;;;;0.82;0.55;;;;;;;;;;6256382;23;20000;-75
2023/04/19 13:15:23;;;;;;;5.22;0.70;;;24.20;74.00;;;;;;6256414;22;20046;-76
2023/04/19 13:17:49;;;;;;;0.43;0.40;;;24.30;75.20;;;;;;6256506;22;20004;-77